Pottstown, Pennsylvania
Current Conditions -  °F | °C
As of 7:54 AM on Friday 24 Oct 2014 (Local Time) from KPTW Reporting Station
Overcast Overcast  
Wind Chill: 55°   Ceiling: 3700
Heat Index: 55°   Visibility: 10mi
Dew Point: 44°   Wind: 10mph
Humidity: 67%   Direction: 320°NW
Pressure: 29.88"   Gusts: 21mph
Location:  40.25°N, 75.65°W
Report Text: KPTW 241154Z AUTO 32009G18KT 10SM OVC037 13/07 A2988 RMK AO2 SLP116 T01280067 10128 20122 53005
Loading
Personal Weather Stations






























Interactive Weather Map New forecast layout! Learn more

10-Day Weather Forecast

Advertisements
Track Severe Weather on mobile